광주제주비행기

페이지 정보

profile_image
작성자스토크 조회 10회 작성일 2021-01-20 06:54:13 댓글 0

본문

광주에서 제주까지(하늘에서 보는 한라산)

이런 저런 설명을 해보려고 했는데
막상 만들고 나니 아쉬운 점이 많네요.

재밌게 봐주셨으면 합니다. 감사합니다.

배경음악 :
Airport Lounge - Disco Ultralounge by Kevin MacLeod is licensed under a Creative Commons Attribution licence (https://creativecommons.org/licenses/by/4.0/)
Source: http://incompetech.com/music/royalty-free/index.html?isrc=USUAN1100806
Artist: http://incompetech.com/

[4K]KE1905|광주-제주 탑승기|비행 탑승 기록|대한항공 1905편|이착륙 영상|B737-800

광주 -제주
SCHEDULED DEPARTURE 4:45 pm
ACTUAL DEPARUTRE 4:55 pm

SCHDULED ARRIVAL 5:45 pm
Landed 5:42 pm

FLIGHT TIME 00:46
CALLSIGN: KAL1905
EQUPMENT: B739 (HL7566)
AIRCRAFT: Boeing 737-8B5

RKJJ 04L DCT DALSU Y711 DOTOL RKPC ILSZ 07

*광주공항(RKJJ)
METAR RKJJ 110700Z 03006KT 9999 BKN040 23/16 Q1008 RMK CIG040 SLP086 8/500 P/500=

METAR RKJJ 110900Z 33007KT 9999 FEW040 22/15 Q1008 RMK SLP080 8/500 9/200 =

제주공항(RKPC)
METAR RKPC 110700Z 06011KT 9999 FEW030 21/15 Q1009 NOSIG=

METAR RKPC 110900Z 04007KT 360V070 9999 SCT040 21/14 Q1008 NOSIG=

*날짜 19.06.11 수정

*좌석 46A

20년 7월 광주공항은 어떨까? (feat. 제주항공 신규서비스)

20년 7월 광주공항은 어떨까?
제주항공에서만 만날 수 있는 새로운 서비스는??

★좋아요와 댓글은 영상제작에 큰 힘이 됩니다.★
==============================

오즈튜브 구독 : https://bit.ly/2xLVVqD
오즈튜브 후원 : https://toon.at/donate/oztube
오즈튜브 인스타 : https://www.instagram.com/oz_tube

... 

#광주제주비행기

댓글목록

등록된 댓글이 없습니다.

전체 1,721건 1 페이지
게시물 검색
Copyright © urbanspace.kr. All rights reserved.  Contact : help@oxmail.xyz